Catàleg de serveis del Meteocat

Dades de l'estació automàtica el Prat de Llobregat

?
?
Resum diari 21:30 TU
Dades diàries de l'estació meteorològica
Temperatura mitjana 13.1 °C
Temperatura màxima 14.8 °C 20:15 TU
Temperatura mínima 11.0 °C 5:17 TU
Humitat relativa mitjana 81%
Precipitació acumulada 7.2 mm
Ratxa màxima del vent (10 m) 37.8 km/h - 38º 13:08 TU
Irradiació solar global 4.6 MJ/m2

El tram horari està expressat en Temps Universal (TU). Cal sumar una hora en horari d'hivern i dues en horari d'estiu per passar a l'hora oficial.

el Prat de Llobregat

Metadades estació meteorol´gica
Municipi El Prat de Llobregat
Comarca Baix Llobregat
Altitud 8 m
Data alta 22.03.2011
Estat actual Operativa
Dades de període
Període
TU
TM
°C
TX
°C
TN
°C
HRM
%
PPT
mm
VVM (10 m)
km/h
DVM (10 m)
graus
VVX (10 m)
km/h
RS
W/m2
00:00 - 00:30 13.0 13.2 12.9 78 0.0 9.7 50 22.3 0
00:30 - 01:00 12.8 13.1 12.7 83 0.0 11.5 41 20.5 0
01:00 - 01:30 12.8 12.9 12.5 82 0.0 10.8 36 22.7 0
01:30 - 02:00 12.4 12.5 12.2 81 0.0 8.6 35 19.4 0
02:00 - 02:30 12.7 12.8 12.5 79 0.0 8.3 36 19.4 0
02:30 - 03:00 12.7 12.9 12.4 78 0.0 9.4 34 25.6 0
03:00 - 03:30 12.6 12.7 12.5 77 0.0 9.4 41 21.2 0
03:30 - 04:00 12.4 12.5 12.2 77 0.0 8.3 24 17.3 0
04:00 - 04:30 12.1 12.3 11.8 80 0.0 7.2 19 15.8 0
04:30 - 05:00 11.8 12.1 11.2 82 0.0 4.3 322 10.1 0
05:00 - 05:30 11.1 11.6 11.0 87 0.0 2.5 328 10.4 0
05:30 - 06:00 12.3 12.5 11.7 77 0.0 8.3 11 18.0 0
06:00 - 06:30 12.3 12.4 12.2 75 0.0 7.2 360 13.7 0
06:30 - 07:00 12.5 12.6 12.4 74 0.0 9.7 41 18.4 1
07:00 - 07:30 12.6 12.6 12.5 77 0.0 10.4 42 23.0 14
07:30 - 08:00 12.5 12.6 12.5 80 0.0 10.1 28 19.8 39
08:00 - 08:30 13.1 13.7 12.5 75 0.0 14.0 33 30.2 201
08:30 - 09:00 13.7 14.1 13.5 72 0.0 14.0 37 28.8 330
09:00 - 09:30 13.8 14.4 13.2 73 0.0 14.0 32 26.6 260
09:30 - 10:00 13.4 13.8 13.0 76 0.0 13.3 34 29.9 226
10:00 - 10:30 13.6 13.8 13.3 74 0.0 18.0 44 34.9 130
10:30 - 11:00 12.7 13.2 12.2 79 0.5 15.5 53 31.3 75
11:00 - 11:30 12.5 13.1 12.2 84 0.2 15.1 43 28.8 185
11:30 - 12:00 13.5 14.1 13.1 80 0.0 18.4 41 35.6 370
12:00 - 12:30 13.5 14.1 13.2 80 0.0 18.7 43 34.2 224
12:30 - 13:00 13.2 13.3 13.0 82 0.0 16.6 40 31.0 140
13:00 - 13:30 13.1 13.2 12.9 82 0.0 19.4 43 37.8 127
13:30 - 14:00 12.9 13.0 12.7 84 0.2 18.4 49 33.5 93
14:00 - 14:30 12.7 12.8 12.7 89 0.6 16.9 49 32.0 60
14:30 - 15:00 12.6 12.7 12.5 92 0.8 18.0 55 37.1 46
15:00 - 15:30 12.6 12.6 12.5 89 0.0 16.2 51 31.7 35
15:30 - 16:00 12.7 12.8 12.5 89 0.4 13.0 53 25.9 15
16:00 - 16:30 12.9 13.5 12.4 89 0.4 13.0 54 24.5 4
16:30 - 17:00 13.6 13.8 13.5 83 0.0 15.1 70 31.7 0
17:00 - 17:30 13.2 13.5 13.0 91 1.1 11.5 67 25.9 0
17:30 - 18:00 13.3 13.5 13.1 91 0.5 12.6 56 26.3 0
18:00 - 18:30 12.9 13.4 12.6 96 2.5 13.7 51 32.4 0
18:30 - 19:00 13.5 14.1 12.9 93 0.0 19.1 68 32.0 1
19:00 - 19:30 14.3 14.5 14.1 80 0.0 18.7 66 36.0 0
19:30 - 20:00 14.5 14.6 14.3 79 0.0 16.6 64 34.6 0
20:00 - 20:30 14.7 14.8 14.6 77 0.0 17.6 68 36.4 0
20:30 - 21:00 14.6 14.7 14.5 78 0.0 17.6 72 33.1 0
21:00 - 21:30 14.7 14.8 14.6 77 0.0 17.3 66 34.9 0
21:30 - 22:00 14.6 14.8 14.5 77 0.0 16.2 60 35.3 0
22:00 - 22:30 (s/d) (s/d) (s/d) (s/d) (s/d) (s/d) (s/d) (s/d) (s/d)

Les dades en taronja només han passat un control de qualitat automàtic. Resta pendent la seva validació definitiva.